This is the latest recevied weather packets stored in our database for station/object KG5VSR. If no packets are shown the sender has not sent any weather packets the latest 10 day(s).
| Time | Temp. | Humidity | Pressure | Rain* | Wind** | Luminosity | Snow |
|---|---|---|---|---|---|---|---|
| 1777907955 | 21.67° C | 67% | 1013.5 hPa | 0 mm | - | 483 W/m² | - |
| 1777906151 | 21.11° C | 71% | 1014.1 hPa | 0 mm | - | 446 W/m² | - |
| 1777904350 | 20° C | 72% | 1014.1 hPa | 0 mm | - | 308 W/m² | - |
| 1777902548 | 18.89° C | 74% | 1014.2 hPa | 0 mm | - | 248 W/m² | - |
| 1777900744 | 18.33° C | 76% | 1014.5 hPa | 0 mm | - | 150 W/m² | - |
| 1777898943 | 17.78° C | 78% | 1014.4 hPa | 0 mm | - | 58 W/m² | - |
| 1777897141 | 17.22° C | 79% | 1013.9 hPa | 0 mm | - | 34 W/m² | - |
| 1777895336 | 17.22° C | 80% | 1013.7 hPa | 0 mm | - | 7 W/m² | - |
| 1777893536 | 17.22° C | 77% | 1013.7 hPa | 0 mm | - | 0 W/m² | - |
| 1777891733 | 17.22° C | 76% | 1013.8 hPa | 0 mm | - | 0 W/m² | - |
| 1777889931 | 17.22° C | 77% | 1013.8 hPa | 0 mm | - | 0 W/m² | - |
| 1777888130 | 17.22° C | 77% | 1014 hPa | 0 mm | - | 0 W/m² | - |
| 1777886327 | 17.22° C | 75% | 1014.1 hPa | 0 mm | - | 0 W/m² | - |
| 1777884524 | 17.78° C | 72% | 1014.4 hPa | 0 mm | - | 0 W/m² | - |
| 1777882720 | 17.22° C | 72% | 1014.4 hPa | 0 mm | - | 0 W/m² | - |
| 1777880919 | 17.78° C | 69% | 1014.6 hPa | 0 mm | - | 0 W/m² | - |
| 1777879116 | 17.78° C | 68% | 1015.1 hPa | 0 mm | - | 0 W/m² | - |
| 1777877313 | 18.33° C | 68% | 1015.5 hPa | 0 mm | - | 0 W/m² | - |
| 1777875512 | 18.89° C | 66% | 1015.6 hPa | 0 mm | - | 0 W/m² | - |
| 1777873712 | 19.44° C | 64% | 1016.1 hPa | 0 mm | - | 0 W/m² | - |
| 1777871906 | 19.44° C | 63% | 1016.2 hPa | 0 mm | - | 0 W/m² | - |
| 1777870103 | 19.44° C | 63% | 1016.6 hPa | 0 mm | - | 0 W/m² | - |
| 1777868302 | 20° C | 62% | 1016.5 hPa | 0 mm | - | 0 W/m² | - |
| 1777866500 | 20.56° C | 60% | 1016.7 hPa | 0 mm | - | 0 W/m² | - |
| 1777864701 | 21.11° C | 57% | 1016.4 hPa | 0 mm | - | 0 W/m² | - |
* Rain latest hour (hover to see other rain measurements)
** Current wind speed in m/s (hover to see current wind gust speed)